sensor_id;sensor_type;location;lat;lon;timestamp;pressure;altitude;pressure_sealevel;temperature;humidity
80414;BME280;69758;52.580;13.068;2023-12-28T00:01:26;100826.72;;;11.59;33.25
80414;BME280;69758;52.580;13.068;2023-12-28T00:03:52;100824.54;;;11.38;33.20
80414;BME280;69758;52.580;13.068;2023-12-28T00:06:17;100814.22;;;11.40;33.18
80414;BME280;69758;52.580;13.068;2023-12-28T00:08:43;100813.08;;;11.39;33.13
80414;BME280;69758;52.580;13.068;2023-12-28T00:11:08;100812.42;;;11.44;33.07
80414;BME280;69758;52.580;13.068;2023-12-28T00:13:33;100803.99;;;11.25;32.97
80414;BME280;69758;52.580;13.068;2023-12-28T00:15:59;100805.67;;;11.51;32.90
80414;BME280;69758;52.580;13.068;2023-12-28T00:18:24;100804.63;;;11.46;32.94
80414;BME280;69758;52.580;13.068;2023-12-28T00:20:50;100801.65;;;11.52;32.86
80414;BME280;69758;52.580;13.068;2023-12-28T00:23:15;100798.81;;;11.55;32.75
80414;BME280;69758;52.580;13.068;2023-12-28T00:25:40;100795.25;;;11.57;32.69
80414;BME280;69758;52.580;13.068;2023-12-28T00:28:06;100792.40;;;11.31;32.68
80414;BME280;69758;52.580;13.068;2023-12-28T00:30:31;100788.99;;;11.53;32.69
80414;BME280;69758;52.580;13.068;2023-12-28T00:32:56;100783.05;;;11.50;32.72
80414;BME280;69758;52.580;13.068;2023-12-28T00:35:22;100775.84;;;11.27;32.69
80414;BME280;69758;52.580;13.068;2023-12-28T00:40:13;100772.11;;;11.27;32.67
80414;BME280;69758;52.580;13.068;2023-12-28T00:42:39;100775.24;;;11.97;32.69
80414;BME280;69758;52.580;13.068;2023-12-28T00:45:06;100774.45;;;11.31;32.64
80414;BME280;69758;52.580;13.068;2023-12-28T00:47:30;100780.57;;;11.52;32.66
80414;BME280;69758;52.580;13.068;2023-12-28T00:49:55;100787.14;;;11.43;32.80
80414;BME280;69758;52.580;13.068;2023-12-28T00:52:20;100779.62;;;11.30;32.97
80414;BME280;69758;52.580;13.068;2023-12-28T00:54:46;100778.17;;;11.22;33.09
80414;BME280;69758;52.580;13.068;2023-12-28T00:57:11;100770.97;;;11.40;33.16
80414;BME280;69758;52.580;13.068;2023-12-28T00:59:37;100776.24;;;11.19;33.13
80414;BME280;69758;52.580;13.068;2023-12-28T01:02:03;100775.26;;;11.23;33.06
80414;BME280;69758;52.580;13.068;2023-12-28T01:04:27;100772.75;;;11.22;33.09
80414;BME280;69758;52.580;13.068;2023-12-28T01:06:52;100782.32;;;11.22;33.11
80414;BME280;69758;52.580;13.068;2023-12-28T01:09:18;100787.27;;;11.25;33.10
80414;BME280;69758;52.580;13.068;2023-12-28T01:11:43;100782.09;;;11.30;33.03
80414;BME280;69758;52.580;13.068;2023-12-28T01:14:09;100771.66;;;11.32;33.02
80414;BME280;69758;52.580;13.068;2023-12-28T01:16:34;100774.57;;;11.33;32.99
80414;BME280;69758;52.580;13.068;2023-12-28T01:18:59;100777.85;;;11.44;33.13
80414;BME280;69758;52.580;13.068;2023-12-28T01:21:25;100783.82;;;11.46;33.12
80414;BME280;69758;52.580;13.068;2023-12-28T01:23:50;100783.26;;;11.48;33.10
80414;BME280;69758;52.580;13.068;2023-12-28T01:26:16;100782.00;;;11.28;33.04
80414;BME280;69758;52.580;13.068;2023-12-28T01:28:41;100773.69;;;11.32;32.99
80414;BME280;69758;52.580;13.068;2023-12-28T01:31:07;100769.62;;;11.06;32.95
80414;BME280;69758;52.580;13.068;2023-12-28T01:33:32;100761.93;;;11.79;32.94
80414;BME280;69758;52.580;13.068;2023-12-28T01:35:57;100746.80;;;11.30;32.97
80414;BME280;69758;52.580;13.068;2023-12-28T01:38:23;100739.46;;;11.34;32.93
80414;BME280;69758;52.580;13.068;2023-12-28T01:40:48;100743.22;;;11.80;32.79
80414;BME280;69758;52.580;13.068;2023-12-28T01:43:15;100732.66;;;11.23;32.93
80414;BME280;69758;52.580;13.068;2023-12-28T01:45:39;100724.86;;;11.30;32.81
80414;BME280;69758;52.580;13.068;2023-12-28T01:48:05;100710.69;;;11.13;32.72
80414;BME280;69758;52.580;13.068;2023-12-28T01:50:31;100691.23;;;11.37;32.62
80414;BME280;69758;52.580;13.068;2023-12-28T01:52:56;100679.60;;;11.40;32.49
80414;BME280;69758;52.580;13.068;2023-12-28T01:55:21;100692.69;;;11.23;32.58
80414;BME280;69758;52.580;13.068;2023-12-28T01:57:47;100703.60;;;11.61;32.40
80414;BME280;69758;52.580;13.068;2023-12-28T02:00:12;100720.94;;;11.11;32.50
80414;BME280;69758;52.580;13.068;2023-12-28T02:02:37;100737.03;;;10.95;32.85
80414;BME280;69758;52.580;13.068;2023-12-28T02:05:03;100740.42;;;10.76;32.98
80414;BME280;69758;52.580;13.068;2023-12-28T02:07:29;100735.31;;;10.78;32.68
80414;BME280;69758;52.580;13.068;2023-12-28T02:09:53;100746.34;;;11.06;32.36
80414;BME280;69758;52.580;13.068;2023-12-28T02:12:19;100755.27;;;11.11;32.05
80414;BME280;69758;52.580;13.068;2023-12-28T02:14:44;100758.52;;;11.08;31.98
80414;BME280;69758;52.580;13.068;2023-12-28T02:17:13;100763.32;;;11.49;31.67
80414;BME280;69758;52.580;13.068;2023-12-28T02:19:50;100761.89;;;11.74;31.37
80414;BME280;69758;52.580;13.068;2023-12-28T02:22:03;100770.96;;;11.79;31.33
80414;BME280;69758;52.580;13.068;2023-12-28T02:24:26;100769.46;;;11.66;31.19
80414;BME280;69758;52.580;13.068;2023-12-28T02:26:51;100768.22;;;12.06;30.87
80414;BME280;69758;52.580;13.068;2023-12-28T02:29:18;100764.89;;;11.62;30.72
80414;BME280;69758;52.580;13.068;2023-12-28T02:31:46;100756.37;;;12.09;30.47
80414;BME280;69758;52.580;13.068;2023-12-28T02:34:12;100745.27;;;11.72;30.44
80414;BME280;69758;52.580;13.068;2023-12-28T02:36:40;100733.45;;;11.93;30.17
80414;BME280;69758;52.580;13.068;2023-12-28T02:39:00;100747.52;;;12.11;30.01
80414;BME280;69758;52.580;13.068;2023-12-28T02:41:24;100758.64;;;11.79;30.05
80414;BME280;69758;52.580;13.068;2023-12-28T02:43:48;100764.37;;;11.96;29.81
80414;BME280;69758;52.580;13.068;2023-12-28T02:46:14;100757.92;;;12.10;29.69
80414;BME280;69758;52.580;13.068;2023-12-28T02:48:39;100753.61;;;12.09;29.55
80414;BME280;69758;52.580;13.068;2023-12-28T02:51:05;100756.86;;;12.38;29.26
80414;BME280;69758;52.580;13.068;2023-12-28T02:53:30;100751.08;;;12.42;28.94
80414;BME280;69758;52.580;13.068;2023-12-28T02:55:55;100741.23;;;12.39;29.09
80414;BME280;69758;52.580;13.068;2023-12-28T02:58:21;100748.98;;;12.55;28.67
80414;BME280;69758;52.580;13.068;2023-12-28T03:00:46;100740.31;;;12.02;28.89
80414;BME280;69758;52.580;13.068;2023-12-28T03:03:11;100749.11;;;12.19;28.76
80414;BME280;69758;52.580;13.068;2023-12-28T03:05:37;100740.25;;;12.48;28.49
80414;BME280;69758;52.580;13.068;2023-12-28T03:08:03;100739.69;;;12.67;28.16
80414;BME280;69758;52.580;13.068;2023-12-28T03:10:27;100748.59;;;12.18;28.45
80414;BME280;69758;52.580;13.068;2023-12-28T03:12:53;100754.23;;;12.49;28.57
80414;BME280;69758;52.580;13.068;2023-12-28T03:15:18;100751.12;;;12.45;28.63
80414;BME280;69758;52.580;13.068;2023-12-28T03:17:43;100750.77;;;12.68;28.78
80414;BME280;69758;52.580;13.068;2023-12-28T03:20:10;100761.04;;;12.17;28.66
80414;BME280;69758;52.580;13.068;2023-12-28T03:22:34;100762.57;;;12.59;28.66
80414;BME280;69758;52.580;13.068;2023-12-28T03:25:00;100761.99;;;12.75;28.51
80414;BME280;69758;52.580;13.068;2023-12-28T03:27:25;100755.67;;;12.68;28.57
80414;BME280;69758;52.580;13.068;2023-12-28T03:29:50;100742.38;;;12.59;28.49
80414;BME280;69758;52.580;13.068;2023-12-28T03:32:15;100751.69;;;12.97;28.55
80414;BME280;69758;52.580;13.068;2023-12-28T03:34:41;100747.10;;;13.33;28.66
80414;BME280;69758;52.580;13.068;2023-12-28T03:37:06;100753.24;;;13.47;29.01
80414;BME280;69758;52.580;13.068;2023-12-28T03:39:32;100745.18;;;13.53;29.63
80414;BME280;69758;52.580;13.068;2023-12-28T03:41:57;100745.25;;;13.24;29.86
80414;BME280;69758;52.580;13.068;2023-12-28T03:44:22;100752.06;;;13.31;30.06
80414;BME280;69758;52.580;13.068;2023-12-28T03:46:48;100755.30;;;13.22;30.10
80414;BME280;69758;52.580;13.068;2023-12-28T03:49:15;100753.49;;;13.30;29.84
80414;BME280;69758;52.580;13.068;2023-12-28T03:51:38;100753.72;;;13.45;29.91
80414;BME280;69758;52.580;13.068;2023-12-28T03:54:04;100755.25;;;13.32;30.19
80414;BME280;69758;52.580;13.068;2023-12-28T03:56:29;100757.52;;;13.28;29.82
80414;BME280;69758;52.580;13.068;2023-12-28T03:58:54;100744.89;;;13.79;29.59
80414;BME280;69758;52.580;13.068;2023-12-28T04:01:21;100752.97;;;13.51;29.56
80414;BME280;69758;52.580;13.068;2023-12-28T04:03:46;100753.90;;;13.55;29.32
80414;BME280;69758;52.580;13.068;2023-12-28T04:06:10;100758.03;;;13.82;29.24
80414;BME280;69758;52.580;13.068;2023-12-28T04:08:36;100759.38;;;13.38;29.08
80414;BME280;69758;52.580;13.068;2023-12-28T04:11:01;100767.81;;;13.69;29.03
80414;BME280;69758;52.580;13.068;2023-12-28T04:13:26;100764.19;;;13.47;29.12
80414;BME280;69758;52.580;13.068;2023-12-28T04:15:52;100769.04;;;13.47;28.91
80414;BME280;69758;52.580;13.068;2023-12-28T04:18:17;100764.22;;;13.57;28.99
80414;BME280;69758;52.580;13.068;2023-12-28T04:20:43;100772.31;;;13.90;28.96
80414;BME280;69758;52.580;13.068;2023-12-28T04:23:08;100781.86;;;13.72;28.94
80414;BME280;69758;52.580;13.068;2023-12-28T04:25:33;100782.44;;;13.70;28.80
80414;BME280;69758;52.580;13.068;2023-12-28T04:27:58;100793.47;;;13.82;28.77
80414;BME280;69758;52.580;13.068;2023-12-28T04:30:24;100795.73;;;13.84;28.60
80414;BME280;69758;52.580;13.068;2023-12-28T04:32:51;100786.46;;;13.80;28.73
80414;BME280;69758;52.580;13.068;2023-12-28T04:35:14;100791.03;;;13.86;28.70
80414;BME280;69758;52.580;13.068;2023-12-28T04:37:40;100780.43;;;13.80;28.82
80414;BME280;69758;52.580;13.068;2023-12-28T04:40:06;100775.23;;;13.46;28.72
80414;BME280;69758;52.580;13.068;2023-12-28T04:42:31;100783.95;;;13.90;28.56
80414;BME280;69758;52.580;13.068;2023-12-28T04:44:56;100782.74;;;13.91;28.56
80414;BME280;69758;52.580;13.068;2023-12-28T04:47:21;100785.34;;;13.93;28.40
80414;BME280;69758;52.580;13.068;2023-12-28T04:49:46;100793.13;;;14.02;28.46
80414;BME280;69758;52.580;13.068;2023-12-28T04:52:12;100796.10;;;13.63;28.62
80414;BME280;69758;52.580;13.068;2023-12-28T04:54:40;100782.48;;;13.86;28.60
80414;BME280;69758;52.580;13.068;2023-12-28T04:57:03;100790.68;;;14.03;28.48
80414;BME280;69758;52.580;13.068;2023-12-28T04:59:28;100791.63;;;14.08;28.54
80414;BME280;69758;52.580;13.068;2023-12-28T05:01:53;100795.75;;;14.00;28.50
80414;BME280;69758;52.580;13.068;2023-12-28T05:04:18;100796.96;;;14.01;28.50
80414;BME280;69758;52.580;13.068;2023-12-28T05:06:44;100797.49;;;14.01;28.55
80414;BME280;69758;52.580;13.068;2023-12-28T05:09:09;100799.09;;;13.86;28.39
80414;BME280;69758;52.580;13.068;2023-12-28T05:11:34;100807.53;;;13.92;28.31
80414;BME280;69758;52.580;13.068;2023-12-28T05:14:00;100811.61;;;14.25;28.21
80414;BME280;69758;52.580;13.068;2023-12-28T05:16:25;100811.84;;;14.30;28.26
80414;BME280;69758;52.580;13.068;2023-12-28T05:18:50;100812.17;;;14.25;28.21
80414;BME280;69758;52.580;13.068;2023-12-28T05:21:16;100816.34;;;14.32;28.24
80414;BME280;69758;52.580;13.068;2023-12-28T05:23:41;100813.30;;;14.27;28.22
80414;BME280;69758;52.580;13.068;2023-12-28T05:26:06;100814.78;;;13.57;28.27
80414;BME280;69758;52.580;13.068;2023-12-28T05:28:32;100817.32;;;14.21;28.20
80414;BME280;69758;52.580;13.068;2023-12-28T05:30:57;100830.34;;;14.23;28.28
80414;BME280;69758;52.580;13.068;2023-12-28T05:33:22;100831.84;;;14.02;28.49
80414;BME280;69758;52.580;13.068;2023-12-28T05:35:47;100837.59;;;14.07;28.50
80414;BME280;69758;52.580;13.068;2023-12-28T05:38:13;100832.39;;;13.83;28.53
80414;BME280;69758;52.580;13.068;2023-12-28T05:40:38;100844.05;;;14.23;28.49
80414;BME280;69758;52.580;13.068;2023-12-28T05:43:04;100849.82;;;14.19;28.53
80414;BME280;69758;52.580;13.068;2023-12-28T05:45:29;100846.89;;;14.38;28.48
80414;BME280;69758;52.580;13.068;2023-12-28T05:47:54;100844.29;;;14.30;28.37
80414;BME280;69758;52.580;13.068;2023-12-28T05:50:19;100847.70;;;14.47;28.44
80414;BME280;69758;52.580;13.068;2023-12-28T05:52:45;100856.07;;;14.30;28.46
80414;BME280;69758;52.580;13.068;2023-12-28T05:55:10;100859.80;;;14.26;28.49
80414;BME280;69758;52.580;13.068;2023-12-28T05:57:36;100860.43;;;14.05;28.56
80414;BME280;69758;52.580;13.068;2023-12-28T06:00:01;100864.72;;;14.59;28.43
80414;BME280;69758;52.580;13.068;2023-12-28T06:02:26;100865.29;;;14.10;28.74
80414;BME280;69758;52.580;13.068;2023-12-28T06:04:51;100862.45;;;14.44;28.77
80414;BME280;69758;52.580;13.068;2023-12-28T06:07:17;100875.40;;;14.24;28.85
80414;BME280;69758;52.580;13.068;2023-12-28T06:09:42;100869.54;;;14.26;28.96
80414;BME280;69758;52.580;13.068;2023-12-28T06:12:07;100866.26;;;14.15;29.20
80414;BME280;69758;52.580;13.068;2023-12-28T06:14:33;100863.98;;;14.22;29.55
80414;BME280;69758;52.580;13.068;2023-12-28T06:16:58;100863.96;;;14.14;29.50
80414;BME280;69758;52.580;13.068;2023-12-28T06:19:23;100864.50;;;14.09;29.71
80414;BME280;69758;52.580;13.068;2023-12-28T06:21:49;100865.05;;;14.10;30.08
80414;BME280;69758;52.580;13.068;2023-12-28T06:24:14;100865.77;;;14.14;30.14
80414;BME280;69758;52.580;13.068;2023-12-28T06:26:40;100867.20;;;13.84;30.64
80414;BME280;69758;52.580;13.068;2023-12-28T06:29:05;100861.61;;;13.75;31.16
80414;BME280;69758;52.580;13.068;2023-12-28T06:31:30;100858.04;;;13.70;31.04
80414;BME280;69758;52.580;13.068;2023-12-28T06:33:55;100857.95;;;14.21;30.78
80414;BME280;69758;52.580;13.068;2023-12-28T06:36:21;100864.48;;;13.96;30.82
80414;BME280;69758;52.580;13.068;2023-12-28T06:38:46;100867.30;;;14.17;30.66
80414;BME280;69758;52.580;13.068;2023-12-28T06:41:12;100874.50;;;14.02;30.85
80414;BME280;69758;52.580;13.068;2023-12-28T06:43:36;100871.61;;;13.76;30.95
80414;BME280;69758;52.580;13.068;2023-12-28T06:46:02;100869.00;;;13.98;30.75
80414;BME280;69758;52.580;13.068;2023-12-28T06:48:27;100864.44;;;14.15;30.77
80414;BME280;69758;52.580;13.068;2023-12-28T06:50:52;100860.51;;;13.89;30.93
80414;BME280;69758;52.580;13.068;2023-12-28T06:53:18;100864.19;;;13.75;30.89
80414;BME280;69758;52.580;13.068;2023-12-28T06:55:43;100868.04;;;13.95;30.88
80414;BME280;69758;52.580;13.068;2023-12-28T06:58:08;100868.35;;;13.81;30.82
80414;BME280;69758;52.580;13.068;2023-12-28T07:00:34;100869.26;;;14.26;30.58
80414;BME280;69758;52.580;13.068;2023-12-28T07:02:59;100872.72;;;14.43;30.29
80414;BME280;69758;52.580;13.068;2023-12-28T07:05:24;100882.04;;;14.22;30.26
80414;BME280;69758;52.580;13.068;2023-12-28T07:07:50;100885.54;;;14.55;30.14
80414;BME280;69758;52.580;13.068;2023-12-28T07:10:15;100888.05;;;14.50;30.15
80414;BME280;69758;52.580;13.068;2023-12-28T07:12:41;100888.94;;;14.52;30.13
80414;BME280;69758;52.580;13.068;2023-12-28T07:15:06;100885.79;;;14.06;30.51
80414;BME280;69758;52.580;13.068;2023-12-28T07:17:31;100894.98;;;13.81;30.70
80414;BME280;69758;52.580;13.068;2023-12-28T07:19:56;100897.15;;;14.14;30.75
80414;BME280;69758;52.580;13.068;2023-12-28T07:22:22;100896.28;;;14.14;30.52
80414;BME280;69758;52.580;13.068;2023-12-28T07:24:47;100898.77;;;14.11;30.56
80414;BME280;69758;52.580;13.068;2023-12-28T07:27:12;100903.80;;;14.16;30.47
80414;BME280;69758;52.580;13.068;2023-12-28T07:29:38;100902.66;;;13.86;30.60
80414;BME280;69758;52.580;13.068;2023-12-28T07:32:04;100904.79;;;13.94;30.55
80414;BME280;69758;52.580;13.068;2023-12-28T07:34:28;100901.94;;;14.18;30.62
80414;BME280;69758;52.580;13.068;2023-12-28T07:36:54;100902.46;;;14.20;30.67
80414;BME280;69758;52.580;13.068;2023-12-28T07:39:19;100909.68;;;14.08;30.54
80414;BME280;69758;52.580;13.068;2023-12-28T07:41:49;100914.92;;;14.27;30.57
80414;BME280;69758;52.580;13.068;2023-12-28T07:44:10;100919.02;;;13.78;31.11
80414;BME280;69758;52.580;13.068;2023-12-28T07:46:35;100925.15;;;13.98;30.96
80414;BME280;69758;52.580;13.068;2023-12-28T07:49:00;100933.22;;;14.12;30.84
80414;BME280;69758;52.580;13.068;2023-12-28T07:51:26;100936.51;;;14.18;30.76
80414;BME280;69758;52.580;13.068;2023-12-28T07:53:51;100939.01;;;13.82;31.10
80414;BME280;69758;52.580;13.068;2023-12-28T07:56:16;100946.67;;;13.82;31.19
80414;BME280;69758;52.580;13.068;2023-12-28T07:58:42;100951.51;;;13.98;31.05
80414;BME280;69758;52.580;13.068;2023-12-28T08:01:09;100950.27;;;13.69;31.09
80414;BME280;69758;52.580;13.068;2023-12-28T08:03:32;100959.46;;;13.41;31.76
80414;BME280;69758;52.580;13.068;2023-12-28T08:05:58;100960.65;;;13.74;31.70
80414;BME280;69758;52.580;13.068;2023-12-28T08:08:23;100964.92;;;13.65;31.60
80414;BME280;69758;52.580;13.068;2023-12-28T08:10:48;100969.82;;;13.78;31.48
80414;BME280;69758;52.580;13.068;2023-12-28T08:13:14;100969.29;;;13.82;31.46
80414;BME280;69758;52.580;13.068;2023-12-28T08:15:39;100975.54;;;13.71;31.61
80414;BME280;69758;52.580;13.068;2023-12-28T08:18:05;100973.34;;;13.78;31.58
80414;BME280;69758;52.580;13.068;2023-12-28T08:20:30;100978.71;;;13.90;31.51
80414;BME280;69758;52.580;13.068;2023-12-28T08:22:55;100972.61;;;13.92;31.49
80414;BME280;69758;52.580;13.068;2023-12-28T08:25:20;100972.37;;;13.89;31.56
80414;BME280;69758;52.580;13.068;2023-12-28T08:27:46;100977.14;;;14.19;31.65
80414;BME280;69758;52.580;13.068;2023-12-28T08:30:12;100975.74;;;13.76;31.66
80414;BME280;69758;52.580;13.068;2023-12-28T08:32:36;100974.16;;;13.87;31.50
80414;BME280;69758;52.580;13.068;2023-12-28T08:35:02;100967.89;;;13.86;31.49
80414;BME280;69758;52.580;13.068;2023-12-28T08:37:27;100970.91;;;13.73;31.62
80414;BME280;69758;52.580;13.068;2023-12-28T08:39:52;100967.39;;;13.85;31.54
80414;BME280;69758;52.580;13.068;2023-12-28T08:42:18;100975.97;;;13.84;31.43
80414;BME280;69758;52.580;13.068;2023-12-28T08:44:43;100972.26;;;13.76;31.60
80414;BME280;69758;52.580;13.068;2023-12-28T08:47:08;100972.96;;;13.70;31.40
80414;BME280;69758;52.580;13.068;2023-12-28T08:49:34;100968.44;;;13.91;31.42
80414;BME280;69758;52.580;13.068;2023-12-28T08:51:59;100971.01;;;13.96;31.29
80414;BME280;69758;52.580;13.068;2023-12-28T08:54:24;100971.06;;;13.87;31.35
80414;BME280;69758;52.580;13.068;2023-12-28T08:56:50;100975.59;;;13.72;31.44
80414;BME280;69758;52.580;13.068;2023-12-28T08:59:15;100978.35;;;13.73;31.49
80414;BME280;69758;52.580;13.068;2023-12-28T09:01:40;100981.64;;;13.91;31.46
80414;BME280;69758;52.580;13.068;2023-12-28T09:04:06;100978.17;;;13.79;31.40
80414;BME280;69758;52.580;13.068;2023-12-28T09:06:31;100979.50;;;13.75;31.41
80414;BME280;69758;52.580;13.068;2023-12-28T09:08:56;100980.89;;;13.91;31.25
80414;BME280;69758;52.580;13.068;2023-12-28T09:11:22;100984.12;;;14.00;31.11
80414;BME280;69758;52.580;13.068;2023-12-28T09:13:47;100979.26;;;13.78;31.16
80414;BME280;69758;52.580;13.068;2023-12-28T09:16:13;100980.51;;;13.69;31.25
80414;BME280;69758;52.580;13.068;2023-12-28T09:18:38;100975.84;;;13.87;31.38
80414;BME280;69758;52.580;13.068;2023-12-28T09:21:04;100979.13;;;13.68;31.57
80414;BME280;69758;52.580;13.068;2023-12-28T09:23:28;100973.82;;;13.69;31.79
80414;BME280;69758;52.580;13.068;2023-12-28T09:25:54;100977.06;;;13.34;32.29
80414;BME280;69758;52.580;13.068;2023-12-28T09:28:19;100977.14;;;13.28;32.24
80414;BME280;69758;52.580;13.068;2023-12-28T09:30:44;100970.33;;;13.53;32.19
80414;BME280;69758;52.580;13.068;2023-12-28T09:33:09;100960.30;;;13.55;31.96
80414;BME280;69758;52.580;13.068;2023-12-28T09:35:35;100969.74;;;13.69;32.10
80414;BME280;69758;52.580;13.068;2023-12-28T09:38:00;100972.94;;;13.42;32.36
80414;BME280;69758;52.580;13.068;2023-12-28T09:40:25;100970.73;;;14.04;32.00
80414;BME280;69758;52.580;13.068;2023-12-28T09:43:07;100967.68;;;13.60;31.88
80414;BME280;69758;52.580;13.068;2023-12-28T09:45:16;100963.68;;;13.54;32.03
80414;BME280;69758;52.580;13.068;2023-12-28T09:47:42;100965.05;;;13.91;31.87
80414;BME280;69758;52.580;13.068;2023-12-28T09:50:07;100966.98;;;13.36;31.96
80414;BME280;69758;52.580;13.068;2023-12-28T09:52:32;100967.32;;;13.79;32.04
80414;BME280;69758;52.580;13.068;2023-12-28T09:54:57;100971.56;;;13.66;31.97
80414;BME280;69758;52.580;13.068;2023-12-28T09:57:23;100970.09;;;13.74;31.95
80414;BME280;69758;52.580;13.068;2023-12-28T09:59:48;100965.70;;;13.54;32.14
80414;BME280;69758;52.580;13.068;2023-12-28T10:02:15;100964.96;;;13.72;32.03
80414;BME280;69758;52.580;13.068;2023-12-28T10:04:39;100961.85;;;13.97;31.85
80414;BME280;69758;52.580;13.068;2023-12-28T10:07:04;100957.49;;;13.89;31.93
80414;BME280;69758;52.580;13.068;2023-12-28T10:09:29;100956.12;;;13.67;32.25
80414;BME280;69758;52.580;13.068;2023-12-28T10:11:55;100960.77;;;13.58;32.60
80414;BME280;69758;52.580;13.068;2023-12-28T10:14:20;100956.41;;;13.28;32.80
80414;BME280;69758;52.580;13.068;2023-12-28T10:16:45;100955.17;;;13.42;32.93
80414;BME280;69758;52.580;13.068;2023-12-28T10:19:10;100956.85;;;13.71;32.52
80414;BME280;69758;52.580;13.068;2023-12-28T10:21:36;100964.03;;;13.45;32.82
80414;BME280;69758;52.580;13.068;2023-12-28T10:24:02;100952.85;;;13.96;32.36
80414;BME280;69758;52.580;13.068;2023-12-28T10:26:26;100966.52;;;13.88;32.44
80414;BME280;69758;52.580;13.068;2023-12-28T10:28:57;100964.65;;;13.43;32.72
80414;BME280;69758;52.580;13.068;2023-12-28T10:31:17;100955.41;;;13.54;33.12
80414;BME280;69758;52.580;13.068;2023-12-28T10:33:42;100968.54;;;13.29;33.22
80414;BME280;69758;52.580;13.068;2023-12-28T10:36:08;100966.95;;;13.59;32.88
80414;BME280;69758;52.580;13.068;2023-12-28T10:38:35;100969.36;;;13.17;33.35
80414;BME280;69758;52.580;13.068;2023-12-28T10:40:58;100970.13;;;13.54;33.17
80414;BME280;69758;52.580;13.068;2023-12-28T10:43:24;100968.76;;;13.80;32.89
80414;BME280;69758;52.580;13.068;2023-12-28T10:45:50;100959.39;;;14.11;32.51
80414;BME280;69758;52.580;13.068;2023-12-28T10:48:16;100969.73;;;13.75;32.68
80414;BME280;69758;52.580;13.068;2023-12-28T10:50:40;100964.98;;;13.83;32.70
80414;BME280;69758;52.580;13.068;2023-12-28T10:53:14;100965.79;;;13.95;32.67
80414;BME280;69758;52.580;13.068;2023-12-28T10:55:36;100967.98;;;13.68;33.19
80414;BME280;69758;52.580;13.068;2023-12-28T10:58:00;100965.55;;;13.68;33.63
80414;BME280;69758;52.580;13.068;2023-12-28T11:00:23;100962.79;;;13.55;33.17
80414;BME280;69758;52.580;13.068;2023-12-28T11:02:48;100964.16;;;13.87;33.49
80414;BME280;69758;52.580;13.068;2023-12-28T11:05:12;100956.84;;;13.94;32.96
80414;BME280;69758;52.580;13.068;2023-12-28T11:07:37;100957.00;;;13.92;32.73
80414;BME280;69758;52.580;13.068;2023-12-28T11:10:04;100961.27;;;14.21;32.66
80414;BME280;69758;52.580;13.068;2023-12-28T11:12:27;100964.08;;;14.55;32.43
80414;BME280;69758;52.580;13.068;2023-12-28T11:14:53;100965.28;;;14.29;32.59
80414;BME280;69758;52.580;13.068;2023-12-28T11:17:19;100968.94;;;14.28;32.57
80414;BME280;69758;52.580;13.068;2023-12-28T11:19:43;100967.50;;;14.51;32.09
80414;BME280;69758;52.580;13.068;2023-12-28T11:22:09;100955.54;;;14.39;31.96
80414;BME280;69758;52.580;13.068;2023-12-28T11:24:34;100956.50;;;14.57;31.63
80414;BME280;69758;52.580;13.068;2023-12-28T11:26:59;100952.12;;;14.68;31.97
80414;BME280;69758;52.580;13.068;2023-12-28T11:29:24;100956.29;;;13.89;32.64
80414;BME280;69758;52.580;13.068;2023-12-28T11:31:51;100948.28;;;14.42;32.43
80414;BME280;69758;52.580;13.068;2023-12-28T11:34:15;100943.77;;;14.20;32.43
80414;BME280;69758;52.580;13.068;2023-12-28T11:36:44;100940.39;;;14.26;32.21
80414;BME280;69758;52.580;13.068;2023-12-28T11:39:06;100931.38;;;13.78;32.50
80414;BME280;69758;52.580;13.068;2023-12-28T11:41:31;100929.63;;;14.24;32.49
80414;BME280;69758;52.580;13.068;2023-12-28T11:43:56;100926.17;;;13.92;32.73
80414;BME280;69758;52.580;13.068;2023-12-28T11:46:21;100920.74;;;14.07;32.44
80414;BME280;69758;52.580;13.068;2023-12-28T11:48:46;100911.81;;;14.56;32.25
80414;BME280;69758;52.580;13.068;2023-12-28T11:51:12;100904.11;;;14.23;32.04
80414;BME280;69758;52.580;13.068;2023-12-28T11:53:38;100893.45;;;14.77;31.74
80414;BME280;69758;52.580;13.068;2023-12-28T11:56:04;100887.35;;;14.44;31.58
80414;BME280;69758;52.580;13.068;2023-12-28T11:58:28;100879.83;;;14.46;31.59
80414;BME280;69758;52.580;13.068;2023-12-28T12:00:53;100887.66;;;14.50;31.36
80414;BME280;69758;52.580;13.068;2023-12-28T12:03:18;100875.88;;;14.37;31.87
80414;BME280;69758;52.580;13.068;2023-12-28T12:05:43;100874.42;;;14.73;31.49
80414;BME280;69758;52.580;13.068;2023-12-28T12:08:10;100873.24;;;14.49;31.51
80414;BME280;69758;52.580;13.068;2023-12-28T12:10:34;100874.45;;;14.48;31.57
80414;BME280;69758;52.580;13.068;2023-12-28T12:12:59;100869.70;;;14.44;31.61
80414;BME280;69758;52.580;13.068;2023-12-28T12:15:25;100871.33;;;14.82;31.22
80414;BME280;69758;52.580;13.068;2023-12-28T12:17:51;100876.77;;;14.54;31.17
80414;BME280;69758;52.580;13.068;2023-12-28T12:20:16;100874.55;;;14.72;31.52
80414;BME280;69758;52.580;13.068;2023-12-28T12:22:41;100876.77;;;14.70;30.98
80414;BME280;69758;52.580;13.068;2023-12-28T12:25:08;100882.04;;;14.54;31.14
80414;BME280;69758;52.580;13.068;2023-12-28T12:27:31;100882.52;;;14.82;31.07
80414;BME280;69758;52.580;13.068;2023-12-28T12:29:57;100887.17;;;15.01;30.61
80414;BME280;69758;52.580;13.068;2023-12-28T12:32:23;100886.76;;;15.04;30.67